sensor_id;sensor_type;location;lat;lon;timestamp;P1;durP1;ratioP1;P2;durP2;ratioP2
53056;SDS011;38940;50.096;4.012;2022-10-16T00:01:23;55.28;;;51.72;;
53056;SDS011;38940;50.096;4.012;2022-10-16T00:03:50;51.33;;;48.03;;
53056;SDS011;38940;50.096;4.012;2022-10-16T00:06:16;58.30;;;54.53;;
53056;SDS011;38940;50.096;4.012;2022-10-16T00:08:43;57.47;;;53.55;;
53056;SDS011;38940;50.096;4.012;2022-10-16T00:11:16;52.45;;;49.05;;
53056;SDS011;38940;50.096;4.012;2022-10-16T00:13:44;48.65;;;45.53;;
53056;SDS011;38940;50.096;4.012;2022-10-16T00:16:11;53.08;;;49.63;;
53056;SDS011;38940;50.096;4.012;2022-10-16T00:18:37;51.80;;;48.50;;
53056;SDS011;38940;50.096;4.012;2022-10-16T00:21:04;52.53;;;49.13;;
53056;SDS011;38940;50.096;4.012;2022-10-16T00:23:30;52.13;;;48.80;;
53056;SDS011;38940;50.096;4.012;2022-10-16T00:25:57;56.58;;;52.95;;
53056;SDS011;38940;50.096;4.012;2022-10-16T00:28:24;57.78;;;54.03;;
53056;SDS011;38940;50.096;4.012;2022-10-16T00:30:50;62.00;;;57.50;;
53056;SDS011;38940;50.096;4.012;2022-10-16T00:33:16;60.70;;;56.80;;
53056;SDS011;38940;50.096;4.012;2022-10-16T00:35:42;64.13;;;59.97;;
53056;SDS011;38940;50.096;4.012;2022-10-16T00:38:08;59.90;;;56.00;;
53056;SDS011;38940;50.096;4.012;2022-10-16T00:40:34;55.72;;;51.97;;
53056;SDS011;38940;50.096;4.012;2022-10-16T00:43:00;54.67;;;51.13;;
53056;SDS011;38940;50.096;4.012;2022-10-16T00:45:26;59.85;;;55.15;;
53056;SDS011;38940;50.096;4.012;2022-10-16T00:47:53;49.65;;;46.45;;
53056;SDS011;38940;50.096;4.012;2022-10-16T00:50:33;54.20;;;50.70;;
53056;SDS011;38940;50.096;4.012;2022-10-16T00:53:00;56.30;;;52.13;;
53056;SDS011;38940;50.096;4.012;2022-10-16T00:55:27;64.15;;;58.97;;
53056;SDS011;38940;50.096;4.012;2022-10-16T00:57:55;56.03;;;52.38;;
53056;SDS011;38940;50.096;4.012;2022-10-16T01:00:22;59.05;;;55.15;;
53056;SDS011;38940;50.096;4.012;2022-10-16T01:02:53;54.63;;;51.13;;
53056;SDS011;38940;50.096;4.012;2022-10-16T01:05:20;55.15;;;51.50;;
53056;SDS011;38940;50.096;4.012;2022-10-16T01:10:16;54.88;;;51.05;;
53056;SDS011;38940;50.096;4.012;2022-10-16T01:17:57;53.47;;;50.00;;
53056;SDS011;38940;50.096;4.012;2022-10-16T01:21:08;50.42;;;47.13;;
53056;SDS011;38940;50.096;4.012;2022-10-16T01:28:17;56.70;;;52.65;;
53056;SDS011;38940;50.096;4.012;2022-10-16T01:30:44;62.67;;;58.47;;
53056;SDS011;38940;50.096;4.012;2022-10-16T01:33:15;60.15;;;55.60;;
53056;SDS011;38940;50.096;4.012;2022-10-16T01:35:43;64.18;;;56.38;;
53056;SDS011;38940;50.096;4.012;2022-10-16T01:40:44;52.33;;;49.00;;
53056;SDS011;38940;50.096;4.012;2022-10-16T01:43:12;70.05;;;65.55;;
53056;SDS011;38940;50.096;4.012;2022-10-16T01:45:40;66.57;;;61.83;;
53056;SDS011;38940;50.096;4.012;2022-10-16T01:48:07;70.28;;;65.72;;
53056;SDS011;38940;50.096;4.012;2022-10-16T01:50:36;68.55;;;63.97;;
53056;SDS011;38940;50.096;4.012;2022-10-16T01:53:04;63.67;;;59.60;;
53056;SDS011;38940;50.096;4.012;2022-10-16T01:55:32;59.67;;;55.35;;
53056;SDS011;38940;50.096;4.012;2022-10-16T01:57:59;65.63;;;61.30;;
53056;SDS011;38940;50.096;4.012;2022-10-16T02:00:26;59.42;;;55.45;;
53056;SDS011;38940;50.096;4.012;2022-10-16T02:02:53;63.63;;;59.53;;
53056;SDS011;38940;50.096;4.012;2022-10-16T02:07:46;62.53;;;58.42;;
53056;SDS011;38940;50.096;4.012;2022-10-16T02:10:13;62.03;;;57.90;;
53056;SDS011;38940;50.096;4.012;2022-10-16T02:12:40;67.30;;;62.95;;
53056;SDS011;38940;50.096;4.012;2022-10-16T02:15:07;54.10;;;50.50;;
53056;SDS011;38940;50.096;4.012;2022-10-16T02:17:33;62.95;;;58.90;;
53056;SDS011;38940;50.096;4.012;2022-10-16T02:19:59;61.58;;;57.60;;
53056;SDS011;38940;50.096;4.012;2022-10-16T02:22:27;73.47;;;68.70;;
53056;SDS011;38940;50.096;4.012;2022-10-16T02:24:58;68.05;;;63.25;;
53056;SDS011;38940;50.096;4.012;2022-10-16T02:27:26;68.18;;;63.67;;
53056;SDS011;38940;50.096;4.012;2022-10-16T02:29:54;66.45;;;62.10;;
53056;SDS011;38940;50.096;4.012;2022-10-16T02:32:24;65.75;;;61.40;;
53056;SDS011;38940;50.096;4.012;2022-10-16T02:34:50;70.30;;;65.65;;
53056;SDS011;38940;50.096;4.012;2022-10-16T02:37:17;65.80;;;61.47;;
53056;SDS011;38940;50.096;4.012;2022-10-16T02:39:44;73.82;;;69.05;;
53056;SDS011;38940;50.096;4.012;2022-10-16T02:42:13;79.78;;;73.13;;
53056;SDS011;38940;50.096;4.012;2022-10-16T02:44:40;68.38;;;63.85;;
53056;SDS011;38940;50.096;4.012;2022-10-16T02:47:06;74.90;;;69.28;;
53056;SDS011;38940;50.096;4.012;2022-10-16T02:49:32;64.40;;;59.88;;
53056;SDS011;38940;50.096;4.012;2022-10-16T02:51:58;67.85;;;63.47;;
53056;SDS011;38940;50.096;4.012;2022-10-16T02:54:24;67.03;;;62.70;;
53056;SDS011;38940;50.096;4.012;2022-10-16T02:56:50;71.43;;;66.63;;
53056;SDS011;38940;50.096;4.012;2022-10-16T02:59:16;66.38;;;61.85;;
53056;SDS011;38940;50.096;4.012;2022-10-16T03:01:42;64.15;;;59.67;;
53056;SDS011;38940;50.096;4.012;2022-10-16T03:04:08;65.55;;;61.30;;
53056;SDS011;38940;50.096;4.012;2022-10-16T03:06:34;69.72;;;65.20;;
53056;SDS011;38940;50.096;4.012;2022-10-16T03:09:01;65.55;;;61.28;;
53056;SDS011;38940;50.096;4.012;2022-10-16T03:11:27;62.30;;;58.20;;
53056;SDS011;38940;50.096;4.012;2022-10-16T03:13:53;62.33;;;57.88;;
53056;SDS011;38940;50.096;4.012;2022-10-16T03:16:19;71.30;;;66.65;;
53056;SDS011;38940;50.096;4.012;2022-10-16T03:18:47;75.55;;;70.60;;
53056;SDS011;38940;50.096;4.012;2022-10-16T03:21:14;81.18;;;75.75;;
53056;SDS011;38940;50.096;4.012;2022-10-16T03:23:40;65.18;;;60.90;;
53056;SDS011;38940;50.096;4.012;2022-10-16T03:26:06;67.38;;;62.85;;
53056;SDS011;38940;50.096;4.012;2022-10-16T03:28:32;62.72;;;58.70;;
53056;SDS011;38940;50.096;4.012;2022-10-16T03:30:58;71.75;;;67.10;;
53056;SDS011;38940;50.096;4.012;2022-10-16T03:33:24;75.95;;;70.97;;
53056;SDS011;38940;50.096;4.012;2022-10-16T03:35:51;67.88;;;63.47;;
53056;SDS011;38940;50.096;4.012;2022-10-16T03:38:18;65.85;;;61.55;;
53056;SDS011;38940;50.096;4.012;2022-10-16T03:40:44;67.10;;;62.55;;
53056;SDS011;38940;50.096;4.012;2022-10-16T03:43:10;64.35;;;60.15;;
53056;SDS011;38940;50.096;4.012;2022-10-16T03:45:36;62.88;;;58.83;;
53056;SDS011;38940;50.096;4.012;2022-10-16T03:48:02;75.38;;;69.68;;
53056;SDS011;38940;50.096;4.012;2022-10-16T03:50:28;69.72;;;65.18;;
53056;SDS011;38940;50.096;4.012;2022-10-16T03:52:54;76.70;;;71.57;;
53056;SDS011;38940;50.096;4.012;2022-10-16T03:55:20;80.22;;;74.45;;
53056;SDS011;38940;50.096;4.012;2022-10-16T03:57:46;77.05;;;72.00;;
53056;SDS011;38940;50.096;4.012;2022-10-16T04:00:12;74.20;;;69.38;;
53056;SDS011;38940;50.096;4.012;2022-10-16T04:02:39;75.70;;;70.72;;
53056;SDS011;38940;50.096;4.012;2022-10-16T04:05:05;71.68;;;66.95;;
53056;SDS011;38940;50.096;4.012;2022-10-16T04:07:31;73.72;;;68.82;;
53056;SDS011;38940;50.096;4.012;2022-10-16T04:09:57;80.85;;;75.53;;
53056;SDS011;38940;50.096;4.012;2022-10-16T04:12:24;74.63;;;69.70;;
53056;SDS011;38940;50.096;4.012;2022-10-16T04:14:50;79.25;;;74.03;;
53056;SDS011;38940;50.096;4.012;2022-10-16T04:17:16;82.53;;;77.18;;
53056;SDS011;38940;50.096;4.012;2022-10-16T04:19:42;77.32;;;72.00;;
53056;SDS011;38940;50.096;4.012;2022-10-16T04:22:08;84.32;;;78.82;;
53056;SDS011;38940;50.096;4.012;2022-10-16T04:24:34;93.50;;;87.45;;
53056;SDS011;38940;50.096;4.012;2022-10-16T04:27:00;84.15;;;78.15;;
53056;SDS011;38940;50.096;4.012;2022-10-16T04:29:27;79.53;;;74.35;;
53056;SDS011;38940;50.096;4.012;2022-10-16T04:31:53;74.13;;;69.25;;
53056;SDS011;38940;50.096;4.012;2022-10-16T04:34:19;76.95;;;71.90;;
53056;SDS011;38940;50.096;4.012;2022-10-16T04:36:46;79.35;;;74.05;;
53056;SDS011;38940;50.096;4.012;2022-10-16T04:39:13;76.50;;;71.45;;
53056;SDS011;38940;50.096;4.012;2022-10-16T04:41:39;73.05;;;68.35;;
53056;SDS011;38940;50.096;4.012;2022-10-16T04:44:05;80.03;;;74.88;;
53056;SDS011;38940;50.096;4.012;2022-10-16T04:46:31;74.50;;;69.65;;
53056;SDS011;38940;50.096;4.012;2022-10-16T04:48:57;75.82;;;70.70;;
53056;SDS011;38940;50.096;4.012;2022-10-16T04:51:23;77.43;;;72.20;;
53056;SDS011;38940;50.096;4.012;2022-10-16T04:53:50;74.50;;;69.43;;
53056;SDS011;38940;50.096;4.012;2022-10-16T04:56:16;64.35;;;60.17;;
53056;SDS011;38940;50.096;4.012;2022-10-16T04:58:42;70.28;;;65.65;;
53056;SDS011;38940;50.096;4.012;2022-10-16T05:01:08;71.38;;;65.85;;
53056;SDS011;38940;50.096;4.012;2022-10-16T05:03:34;74.30;;;69.50;;
53056;SDS011;38940;50.096;4.012;2022-10-16T05:06:00;77.57;;;72.32;;
53056;SDS011;38940;50.096;4.012;2022-10-16T05:08:26;70.07;;;65.53;;
53056;SDS011;38940;50.096;4.012;2022-10-16T05:10:52;71.93;;;67.28;;
53056;SDS011;38940;50.096;4.012;2022-10-16T05:13:18;79.10;;;73.93;;
53056;SDS011;38940;50.096;4.012;2022-10-16T05:15:47;71.70;;;66.90;;
53056;SDS011;38940;50.096;4.012;2022-10-16T05:18:14;70.35;;;65.72;;
53056;SDS011;38940;50.096;4.012;2022-10-16T05:20:40;68.57;;;64.15;;
53056;SDS011;38940;50.096;4.012;2022-10-16T05:23:06;81.35;;;75.82;;
53056;SDS011;38940;50.096;4.012;2022-10-16T05:25:32;71.10;;;66.53;;
53056;SDS011;38940;50.096;4.012;2022-10-16T05:27:58;83.68;;;78.35;;
53056;SDS011;38940;50.096;4.012;2022-10-16T05:30:24;73.75;;;68.57;;
53056;SDS011;38940;50.096;4.012;2022-10-16T05:32:51;69.15;;;64.07;;
53056;SDS011;38940;50.096;4.012;2022-10-16T05:35:17;77.35;;;71.95;;
53056;SDS011;38940;50.096;4.012;2022-10-16T05:37:44;75.18;;;70.03;;
53056;SDS011;38940;50.096;4.012;2022-10-16T05:40:10;76.35;;;71.40;;
53056;SDS011;38940;50.096;4.012;2022-10-16T05:42:37;72.45;;;67.75;;
53056;SDS011;38940;50.096;4.012;2022-10-16T05:45:04;76.45;;;71.47;;
53056;SDS011;38940;50.096;4.012;2022-10-16T05:47:31;82.85;;;77.47;;
53056;SDS011;38940;50.096;4.012;2022-10-16T05:49:57;73.88;;;68.97;;
53056;SDS011;38940;50.096;4.012;2022-10-16T05:52:23;63.25;;;59.17;;
53056;SDS011;38940;50.096;4.012;2022-10-16T05:54:49;72.40;;;67.60;;
53056;SDS011;38940;50.096;4.012;2022-10-16T05:57:15;69.45;;;64.97;;
53056;SDS011;38940;50.096;4.012;2022-10-16T05:59:41;68.97;;;64.50;;
53056;SDS011;38940;50.096;4.012;2022-10-16T06:02:10;74.70;;;69.85;;
53056;SDS011;38940;50.096;4.012;2022-10-16T06:04:37;70.22;;;65.68;;
53056;SDS011;38940;50.096;4.012;2022-10-16T06:07:03;80.13;;;74.90;;
53056;SDS011;38940;50.096;4.012;2022-10-16T06:09:29;73.07;;;68.18;;
53056;SDS011;38940;50.096;4.012;2022-10-16T06:11:55;73.10;;;68.32;;
53056;SDS011;38940;50.096;4.012;2022-10-16T06:14:21;71.03;;;66.43;;
53056;SDS011;38940;50.096;4.012;2022-10-16T06:16:47;74.30;;;69.40;;
53056;SDS011;38940;50.096;4.012;2022-10-16T06:19:13;80.15;;;74.88;;
53056;SDS011;38940;50.096;4.012;2022-10-16T06:21:41;85.07;;;79.50;;
53056;SDS011;38940;50.096;4.012;2022-10-16T06:24:07;81.72;;;76.38;;
53056;SDS011;38940;50.096;4.012;2022-10-16T06:26:33;89.32;;;83.45;;
53056;SDS011;38940;50.096;4.012;2022-10-16T06:28:59;83.40;;;77.97;;
53056;SDS011;38940;50.096;4.012;2022-10-16T06:31:26;90.15;;;84.15;;
53056;SDS011;38940;50.096;4.012;2022-10-16T06:33:55;81.90;;;76.57;;
53056;SDS011;38940;50.096;4.012;2022-10-16T06:36:21;73.25;;;68.13;;
53056;SDS011;38940;50.096;4.012;2022-10-16T06:38:47;72.78;;;68.00;;
53056;SDS011;38940;50.096;4.012;2022-10-16T06:41:15;78.82;;;73.68;;
53056;SDS011;38940;50.096;4.012;2022-10-16T06:43:41;95.75;;;89.43;;
53056;SDS011;38940;50.096;4.012;2022-10-16T06:46:09;83.80;;;78.18;;
53056;SDS011;38940;50.096;4.012;2022-10-16T06:48:36;69.13;;;64.50;;
53056;SDS011;38940;50.096;4.012;2022-10-16T06:51:03;83.03;;;77.55;;
53056;SDS011;38940;50.096;4.012;2022-10-16T06:53:31;80.07;;;74.93;;
53056;SDS011;38940;50.096;4.012;2022-10-16T06:55:57;89.57;;;83.65;;
53056;SDS011;38940;50.096;4.012;2022-10-16T06:58:23;80.30;;;74.63;;
53056;SDS011;38940;50.096;4.012;2022-10-16T07:00:54;70.43;;;65.55;;
53056;SDS011;38940;50.096;4.012;2022-10-16T07:03:21;68.53;;;64.03;;
53056;SDS011;38940;50.096;4.012;2022-10-16T07:05:47;77.32;;;72.32;;
53056;SDS011;38940;50.096;4.012;2022-10-16T07:08:13;76.22;;;71.32;;
53056;SDS011;38940;50.096;4.012;2022-10-16T07:10:39;72.32;;;67.65;;
53056;SDS011;38940;50.096;4.012;2022-10-16T07:13:05;77.40;;;72.38;;
53056;SDS011;38940;50.096;4.012;2022-10-16T07:15:32;73.18;;;68.45;;
53056;SDS011;38940;50.096;4.012;2022-10-16T07:17:58;77.65;;;72.43;;
53056;SDS011;38940;50.096;4.012;2022-10-16T07:20:25;81.70;;;76.47;;
53056;SDS011;38940;50.096;4.012;2022-10-16T07:22:51;83.00;;;76.60;;
53056;SDS011;38940;50.096;4.012;2022-10-16T07:25:17;80.00;;;74.82;;
53056;SDS011;38940;50.096;4.012;2022-10-16T07:27:44;87.70;;;82.07;;
53056;SDS011;38940;50.096;4.012;2022-10-16T07:30:10;81.72;;;76.43;;
53056;SDS011;38940;50.096;4.012;2022-10-16T07:32:36;84.75;;;79.28;;
53056;SDS011;38940;50.096;4.012;2022-10-16T07:35:02;85.00;;;79.50;;
53056;SDS011;38940;50.096;4.012;2022-10-16T07:37:29;81.35;;;76.13;;
53056;SDS011;38940;50.096;4.012;2022-10-16T07:39:55;84.60;;;79.00;;
53056;SDS011;38940;50.096;4.012;2022-10-16T07:42:21;81.05;;;75.80;;
53056;SDS011;38940;50.096;4.012;2022-10-16T07:44:47;80.22;;;74.93;;
53056;SDS011;38940;50.096;4.012;2022-10-16T07:47:13;87.07;;;81.43;;
53056;SDS011;38940;50.096;4.012;2022-10-16T07:49:39;90.82;;;84.93;;
53056;SDS011;38940;50.096;4.012;2022-10-16T07:52:05;96.18;;;90.03;;
53056;SDS011;38940;50.096;4.012;2022-10-16T07:54:31;101.15;;;94.47;;
53056;SDS011;38940;50.096;4.012;2022-10-16T07:56:57;99.70;;;93.32;;
53056;SDS011;38940;50.096;4.012;2022-10-16T07:59:23;93.65;;;87.63;;
53056;SDS011;38940;50.096;4.012;2022-10-16T08:01:49;99.47;;;92.75;;
53056;SDS011;38940;50.096;4.012;2022-10-16T08:04:15;93.22;;;87.22;;
53056;SDS011;38940;50.096;4.012;2022-10-16T08:06:41;97.97;;;90.95;;
53056;SDS011;38940;50.096;4.012;2022-10-16T08:09:07;86.85;;;81.30;;
53056;SDS011;38940;50.096;4.012;2022-10-16T08:11:34;89.07;;;82.57;;
53056;SDS011;38940;50.096;4.012;2022-10-16T08:14:00;93.18;;;86.82;;
53056;SDS011;38940;50.096;4.012;2022-10-16T08:16:26;91.10;;;85.25;;
53056;SDS011;38940;50.096;4.012;2022-10-16T08:18:52;106.10;;;99.30;;
53056;SDS011;38940;50.096;4.012;2022-10-16T08:21:22;94.80;;;88.72;;
53056;SDS011;38940;50.096;4.012;2022-10-16T08:23:48;100.05;;;93.50;;
53056;SDS011;38940;50.096;4.012;2022-10-16T08:26:14;97.30;;;91.03;;
53056;SDS011;38940;50.096;4.012;2022-10-16T08:28:40;94.63;;;88.43;;
53056;SDS011;38940;50.096;4.012;2022-10-16T08:31:14;92.95;;;86.95;;
53056;SDS011;38940;50.096;4.012;2022-10-16T08:33:40;86.43;;;80.75;;
53056;SDS011;38940;50.096;4.012;2022-10-16T08:36:07;94.93;;;88.82;;
53056;SDS011;38940;50.096;4.012;2022-10-16T08:38:33;90.40;;;83.40;;
53056;SDS011;38940;50.096;4.012;2022-10-16T08:43:31;87.15;;;81.38;;
53056;SDS011;38940;50.096;4.012;2022-10-16T08:46:13;85.30;;;79.75;;
53056;SDS011;38940;50.096;4.012;2022-10-16T08:51:12;87.38;;;81.72;;
53056;SDS011;38940;50.096;4.012;2022-10-16T08:56:14;96.63;;;90.20;;
53056;SDS011;38940;50.096;4.012;2022-10-16T08:58:40;78.40;;;73.38;;
53056;SDS011;38940;50.096;4.012;2022-10-16T09:01:14;82.95;;;77.15;;
53056;SDS011;38940;50.096;4.012;2022-10-16T09:11:44;80.55;;;75.38;;
53056;SDS011;38940;50.096;4.012;2022-10-16T09:19:49;84.30;;;78.25;;
53056;SDS011;38940;50.096;4.012;2022-10-16T09:22:17;86.15;;;80.57;;
53056;SDS011;38940;50.096;4.012;2022-10-16T09:24:43;79.15;;;73.75;;
53056;SDS011;38940;50.096;4.012;2022-10-16T09:27:13;72.82;;;68.10;;
53056;SDS011;38940;50.096;4.012;2022-10-16T09:29:40;93.13;;;86.90;;
53056;SDS011;38940;50.096;4.012;2022-10-16T09:32:16;94.65;;;88.38;;
53056;SDS011;38940;50.096;4.012;2022-10-16T09:34:45;96.10;;;89.35;;
53056;SDS011;38940;50.096;4.012;2022-10-16T09:37:13;93.30;;;87.30;;
53056;SDS011;38940;50.096;4.012;2022-10-16T09:39:44;84.00;;;78.57;;
53056;SDS011;38940;50.096;4.012;2022-10-16T09:42:13;79.35;;;73.53;;
53056;SDS011;38940;50.096;4.012;2022-10-16T09:44:39;82.75;;;77.38;;
53056;SDS011;38940;50.096;4.012;2022-10-16T09:47:12;76.22;;;71.25;;
53056;SDS011;38940;50.096;4.012;2022-10-16T09:49:49;89.05;;;83.05;;
53056;SDS011;38940;50.096;4.012;2022-10-16T09:52:16;99.57;;;93.18;;
53056;SDS011;38940;50.096;4.012;2022-10-16T09:54:52;93.32;;;86.93;;
53056;SDS011;38940;50.096;4.012;2022-10-16T09:57:19;72.03;;;67.28;;
53056;SDS011;38940;50.096;4.012;2022-10-16T09:59:49;72.60;;;67.53;;
53056;SDS011;38940;50.096;4.012;2022-10-16T10:02:16;67.78;;;63.38;;
53056;SDS011;38940;50.096;4.012;2022-10-16T10:04:48;66.68;;;62.42;;
53056;SDS011;38940;50.096;4.012;2022-10-16T10:07:20;80.93;;;75.72;;
53056;SDS011;38940;50.096;4.012;2022-10-16T10:09:49;74.93;;;70.13;;
53056;SDS011;38940;50.096;4.012;2022-10-16T10:12:25;86.50;;;80.90;;
53056;SDS011;38940;50.096;4.012;2022-10-16T10:14:52;88.45;;;82.57;;
53056;SDS011;38940;50.096;4.012;2022-10-16T10:17:24;86.57;;;81.05;;
53056;SDS011;38940;50.096;4.012;2022-10-16T10:22:40;81.75;;;75.10;;
53056;SDS011;38940;50.096;4.012;2022-10-16T10:33:01;56.08;;;52.42;;
53056;SDS011;38940;50.096;4.012;2022-10-16T10:46:28;42.35;;;39.65;;
53056;SDS011;38940;50.096;4.012;2022-10-16T10:49:01;47.85;;;44.85;;
53056;SDS011;38940;50.096;4.012;2022-10-16T10:54:12;45.58;;;42.67;;
53056;SDS011;38940;50.096;4.012;2022-10-16T10:56:51;47.75;;;44.70;;
53056;SDS011;38940;50.096;4.012;2022-10-16T11:02:10;53.40;;;50.00;;
53056;SDS011;38940;50.096;4.012;2022-10-16T11:07:31;50.20;;;46.90;;
53056;SDS011;38940;50.096;4.012;2022-10-16T11:10:02;47.13;;;44.13;;
53056;SDS011;38940;50.096;4.012;2022-10-16T11:12:34;51.00;;;47.75;;
53056;SDS011;38940;50.096;4.012;2022-10-16T11:17:28;51.47;;;48.20;;
53056;SDS011;38940;50.096;4.012;2022-10-16T11:20:16;50.83;;;47.63;;
53056;SDS011;38940;50.096;4.012;2022-10-16T11:22:45;54.83;;;51.30;;
53056;SDS011;38940;50.096;4.012;2022-10-16T11:25:31;56.53;;;52.92;;
53056;SDS011;38940;50.096;4.012;2022-10-16T11:30:28;52.72;;;49.33;;
53056;SDS011;38940;50.096;4.012;2022-10-16T11:35:25;61.92;;;57.72;;
53056;SDS011;38940;50.096;4.012;2022-10-16T11:37:57;51.33;;;47.92;;
53056;SDS011;38940;50.096;4.012;2022-10-16T11:40:27;48.55;;;45.47;;
53056;SDS011;38940;50.096;4.012;2022-10-16T11:45:41;57.30;;;53.60;;
53056;SDS011;38940;50.096;4.012;2022-10-16T11:48:13;62.83;;;58.83;;
53056;SDS011;38940;50.096;4.012;2022-10-16T11:53:14;63.88;;;59.78;;
53056;SDS011;38940;50.096;4.012;2022-10-16T11:55:42;54.08;;;50.58;;
53056;SDS011;38940;50.096;4.012;2022-10-16T12:06:02;48.80;;;45.70;;
53056;SDS011;38940;50.096;4.012;2022-10-16T12:08:30;47.42;;;44.42;;
53056;SDS011;38940;50.096;4.012;2022-10-16T12:14:59;51.85;;;48.55;;
53056;SDS011;38940;50.096;4.012;2022-10-16T12:19:19;55.35;;;51.75;;
53056;SDS011;38940;50.096;4.012;2022-10-16T12:21:46;53.00;;;49.63;;
53056;SDS011;38940;50.096;4.012;2022-10-16T12:24:26;54.80;;;51.30;;
53056;SDS011;38940;50.096;4.012;2022-10-16T12:26:54;52.80;;;49.40;;
53056;SDS011;38940;50.096;4.012;2022-10-16T12:29:39;50.05;;;46.75;;
53056;SDS011;38940;50.096;4.012;2022-10-16T12:35:16;47.92;;;44.83;;
53056;SDS011;38940;50.096;4.012;2022-10-16T12:37:42;49.53;;;46.40;;
53056;SDS011;38940;50.096;4.012;2022-10-16T12:42:39;54.53;;;51.03;;
53056;SDS011;38940;50.096;4.012;2022-10-16T12:47:50;52.83;;;49.47;;
53056;SDS011;38940;50.096;4.012;2022-10-16T12:52:49;47.80;;;44.77;;
53056;SDS011;38940;50.096;4.012;2022-10-16T12:55:16;44.95;;;42.13;;
53056;SDS011;38940;50.096;4.012;2022-10-16T13:18:22;44.60;;;41.63;;
53056;SDS011;38940;50.096;4.012;2022-10-16T13:20:55;48.35;;;45.25;;
53056;SDS011;38940;50.096;4.012;2022-10-16T13:23:24;49.10;;;45.65;;
53056;SDS011;38940;50.096;4.012;2022-10-16T13:28:31;45.50;;;42.10;;
53056;SDS011;38940;50.096;4.012;2022-10-16T13:30:58;49.60;;;46.40;;
53056;SDS011;38940;50.096;4.012;2022-10-16T13:33:37;48.67;;;45.00;;
53056;SDS011;38940;50.096;4.012;2022-10-16T13:36:05;49.20;;;46.03;;
53056;SDS011;38940;50.096;4.012;2022-10-16T13:38:32;52.33;;;48.83;;
53056;SDS011;38940;50.096;4.012;2022-10-16T13:43:28;47.45;;;44.35;;
53056;SDS011;38940;50.096;4.012;2022-10-16T13:45:58;51.38;;;47.92;;
53056;SDS011;38940;50.096;4.012;2022-10-16T13:48:25;53.17;;;49.78;;
53056;SDS011;38940;50.096;4.012;2022-10-16T13:53:30;47.80;;;44.80;;
53056;SDS011;38940;50.096;4.012;2022-10-16T13:55:56;45.88;;;42.95;;
53056;SDS011;38940;50.096;4.012;2022-10-16T13:58:22;50.70;;;47.25;;
53056;SDS011;38940;50.096;4.012;2022-10-16T14:00:55;47.45;;;44.42;;
53056;SDS011;38940;50.096;4.012;2022-10-16T14:03:21;48.55;;;44.72;;
53056;SDS011;38940;50.096;4.012;2022-10-16T14:05:49;50.60;;;47.30;;
53056;SDS011;38940;50.096;4.012;2022-10-16T14:08:15;52.67;;;49.35;;
53056;SDS011;38940;50.096;4.012;2022-10-16T14:10:41;53.30;;;49.90;;
53056;SDS011;38940;50.096;4.012;2022-10-16T14:13:07;45.67;;;42.80;;
53056;SDS011;38940;50.096;4.012;2022-10-16T14:15:45;51.88;;;48.53;;
53056;SDS011;38940;50.096;4.012;2022-10-16T14:18:21;46.28;;;43.28;;
53056;SDS011;38940;50.096;4.012;2022-10-16T14:20:48;43.13;;;40.40;;
53056;SDS011;38940;50.096;4.012;2022-10-16T14:26:11;53.28;;;49.83;;
53056;SDS011;38940;50.096;4.012;2022-10-16T14:28:38;50.08;;;46.72;;
53056;SDS011;38940;50.096;4.012;2022-10-16T14:34:02;53.10;;;49.70;;
53056;SDS011;38940;50.096;4.012;2022-10-16T14:36:28;58.10;;;54.38;;
53056;SDS011;38940;50.096;4.012;2022-10-16T14:39:02;56.17;;;52.58;;
53056;SDS011;38940;50.096;4.012;2022-10-16T14:41:29;56.55;;;52.95;;
53056;SDS011;38940;50.096;4.012;2022-10-16T14:43:57;51.25;;;47.95;;
53056;SDS011;38940;50.096;4.012;2022-10-16T14:46:33;55.30;;;51.78;;
53056;SDS011;38940;50.096;4.012;2022-10-16T14:49:03;53.13;;;49.60;;
53056;SDS011;38940;50.096;4.012;2022-10-16T14:51:30;54.55;;;50.97;;
53056;SDS011;38940;50.096;4.012;2022-10-16T14:53:56;60.75;;;56.75;;
53056;SDS011;38940;50.096;4.012;2022-10-16T14:56:23;56.88;;;53.17;;
53056;SDS011;38940;50.096;4.012;2022-10-16T14:58:49;55.95;;;52.33;;
53056;SDS011;38940;50.096;4.012;2022-10-16T15:01:16;73.35;;;68.43;;
53056;SDS011;38940;50.096;4.012;2022-10-16T15:03:42;63.20;;;58.45;;
53056;SDS011;38940;50.096;4.012;2022-10-16T15:06:12;61.78;;;57.85;;
53056;SDS011;38940;50.096;4.012;2022-10-16T15:08:38;60.08;;;56.17;;
53056;SDS011;38940;50.096;4.012;2022-10-16T15:11:04;60.42;;;56.50;;
53056;SDS011;38940;50.096;4.012;2022-10-16T15:13:30;60.05;;;55.75;;
53056;SDS011;38940;50.096;4.012;2022-10-16T15:15:56;59.22;;;55.42;;
53056;SDS011;38940;50.096;4.012;2022-10-16T15:18:25;67.80;;;63.28;;
53056;SDS011;38940;50.096;4.012;2022-10-16T15:20:51;62.95;;;58.67;;
53056;SDS011;38940;50.096;4.012;2022-10-16T15:23:19;76.80;;;71.82;;
53056;SDS011;38940;50.096;4.012;2022-10-16T15:25:47;70.32;;;65.75;;
53056;SDS011;38940;50.096;4.012;2022-10-16T15:28:13;59.30;;;55.47;;
53056;SDS011;38940;50.096;4.012;2022-10-16T15:30:40;61.50;;;57.47;;
53056;SDS011;38940;50.096;4.012;2022-10-16T15:33:11;65.70;;;60.80;;
53056;SDS011;38940;50.096;4.012;2022-10-16T15:35:38;63.30;;;58.75;;
53056;SDS011;38940;50.096;4.012;2022-10-16T15:38:04;67.55;;;62.60;;
53056;SDS011;38940;50.096;4.012;2022-10-16T15:40:30;65.53;;;61.13;;
53056;SDS011;38940;50.096;4.012;2022-10-16T15:42:57;61.97;;;57.90;;
53056;SDS011;38940;50.096;4.012;2022-10-16T15:45:23;70.50;;;65.55;;
53056;SDS011;38940;50.096;4.012;2022-10-16T15:47:49;62.75;;;58.42;;
53056;SDS011;38940;50.096;4.012;2022-10-16T15:50:15;59.95;;;55.47;;
53056;SDS011;38940;50.096;4.012;2022-10-16T15:52:41;70.30;;;65.50;;
53056;SDS011;38940;50.096;4.012;2022-10-16T15:55:08;74.90;;;69.93;;
53056;SDS011;38940;50.096;4.012;2022-10-16T15:57:35;71.40;;;66.63;;
53056;SDS011;38940;50.096;4.012;2022-10-16T16:00:06;69.47;;;65.05;;
53056;SDS011;38940;50.096;4.012;2022-10-16T16:02:33;67.78;;;63.08;;
53056;SDS011;38940;50.096;4.012;2022-10-16T16:04:59;63.70;;;59.50;;
53056;SDS011;38940;50.096;4.012;2022-10-16T16:07:26;59.47;;;55.65;;
53056;SDS011;38940;50.096;4.012;2022-10-16T16:09:52;66.40;;;62.17;;
53056;SDS011;38940;50.096;4.012;2022-10-16T16:12:19;72.68;;;67.93;;
53056;SDS011;38940;50.096;4.012;2022-10-16T16:14:45;80.20;;;74.93;;
53056;SDS011;38940;50.096;4.012;2022-10-16T16:17:13;76.40;;;71.30;;
53056;SDS011;38940;50.096;4.012;2022-10-16T16:19:39;76.93;;;71.90;;
53056;SDS011;38940;50.096;4.012;2022-10-16T16:22:05;78.00;;;73.00;;
53056;SDS011;38940;50.096;4.012;2022-10-16T16:24:31;75.80;;;70.75;;
53056;SDS011;38940;50.096;4.012;2022-10-16T16:26:57;76.70;;;71.63;;
53056;SDS011;38940;50.096;4.012;2022-10-16T16:29:23;76.00;;;71.10;;
53056;SDS011;38940;50.096;4.012;2022-10-16T16:31:49;70.05;;;65.57;;
53056;SDS011;38940;50.096;4.012;2022-10-16T16:34:21;76.32;;;71.43;;
53056;SDS011;38940;50.096;4.012;2022-10-16T16:36:47;79.40;;;74.22;;
53056;SDS011;38940;50.096;4.012;2022-10-16T16:39:13;83.70;;;78.25;;
53056;SDS011;38940;50.096;4.012;2022-10-16T16:41:39;90.78;;;84.88;;
53056;SDS011;38940;50.096;4.012;2022-10-16T16:44:07;83.15;;;77.75;;